• Join FlightAware (Why Join?)
  • Login
  • US Flag 
06:31AM EST


 

Airport Tracker/Info


-or-


 

Live Flight TrackerFlight Track Log ✈ SWA1974 ✈ 27-Jan-2014 ✈ KPHX - KLAS

Flight Track Log - Related Links

Times and Time Zones

All times are in EST time to prevent confusion due to time zone crossing. See the SWA1974 flight status page for this flight to view local times or setup timezone preferences in your user account.

Time Position Orientation Groundspeed Altitude Reporting Facility
EST Latitude Longitude Course Direction KTS MPH feet Rate Location/Type
05:48PM 33.4333 -112.0333 270° West 107 123 1,600  Level Phoenix TRACON
05:48PM 33.4333 -112.0500 270° West 171 197 2,700 1,860 Climbing Phoenix TRACON
05:49PM 33.4331 -112.1336 270° West 205 236 5,100 2,040 Climbing Albuquerque Center
05:51PM 33.4692 -112.1958 305° West 267 307 7,600 3,000 Climbing Albuquerque Center
05:52PM 33.5611 -112.1744 11° North 283 326 11,400 3,180 Climbing Albuquerque Center
05:53PM 33.6503 -112.2008 346° North 332 382 14,200 2,760 Climbing Albuquerque Center
05:54PM 33.7408 -112.2339 343° North 338 389 17,100 2,640 Climbing Albuquerque Center
05:55PM 33.8422 -112.2675 345° North 358 412 19,700 2,340 Climbing Albuquerque Center
05:56PM 33.9428 -112.3042 343° North 374 430 22,000 2,040 Climbing Albuquerque Center
05:57PM 34.0447 -112.3419 343° North 389 448 24,000 420 Climbing Albuquerque Center
05:58PM 34.1417 -112.4047 332° Northwest 392 451 22,900 -1,020 Descending Albuquerque Center
05:59PM 34.2353 -112.4617 333° Northwest 380 437 22,000 -480 Descending Albuquerque Center
06:00PM 34.3397 -112.5289 332° Northwest 366 421 22,000  Level Albuquerque Center
06:01PM 34.4300 -112.5847 333° Northwest 362 417 22,000  Level Albuquerque Center
06:02PM 34.5217 -112.6394 334° Northwest 366 421 22,000  Level Albuquerque Center
06:03PM 34.5886 -112.7308 312° West 385 443 22,000  Level Albuquerque Center
06:04PM 34.6469 -112.8303 306° West 369 425 22,000  Level Albuquerque Center
06:05PM 34.7044 -112.9322 304° West 368 423 22,000  Level Albuquerque Center
06:06PM 34.7617 -113.0356 304° West 368 423 22,000  Level Albuquerque Center
06:07PM 34.8314 -113.1592 305° West 369 425 22,000  Level Albuquerque Center
06:08PM 34.8889 -113.2622 304° West 369 425 22,000  Level Albuquerque Center
06:09PM 34.9458 -113.3633 305° West 366 421 22,000  Level Albuquerque Center
06:10PM 35.0017 -113.4644 304° West 361 415 22,000  Level Albuquerque Center
06:11PM 35.0583 -113.5675 304° West 364 419 22,000  Level Albuquerque Center
06:12PM 35.1142 -113.6694 304° West 363 418 22,000  Level Albuquerque Center
06:13PM 35.1706 -113.7703 304° West 361 415 22,000  Level Albuquerque Center
06:14PM 35.2367 -113.8939 303° West 362 417 22,000  Level Albuquerque Center
06:15PM 35.3119 -113.9828 316° Northwest 355 409 22,000 -840 Level Los Angeles Center
06:16PM 35.4094 -114.0728 323° Northwest 365 420 20,200 -1,680 Descending Los Angeles Center
06:17PM 35.4869 -114.1442 323° Northwest 375 432 18,600 -1,920 Descending Los Angeles Center
06:18PM 35.5697 -114.2225 322° Northwest 348 400 16,300 -2,160 Descending Los Angeles Center
06:19PM 35.6358 -114.2850 322° Northwest 329 379 14,500 -1,860 Descending Los Angeles Center
06:20PM 35.6375 -114.2861 332° Northwest 326 375 14,400 -1,440 Descending Los Angeles Center
06:21PM 35.6931 -114.3369 323° Northwest 316 364 12,900 -1,260 Descending Los Angeles Center
06:21PM 35.7697 -114.3986 327° Northwest 282 325 12,000 -900 Descending Los Angeles Center
06:22PM 35.7747 -114.3986 360° North 286 329 12,000 -720 Level Los Angeles Center
06:22PM 35.8403 -114.4519 327° Northwest 279 321 11,300 -780 Descending Los Angeles Center
06:23PM 35.8500 -114.4606 324° Northwest 280 322 11,200 -900 Descending Los Angeles Center
06:23PM 35.8967 -114.5206 314° West 287 330 10,400 -1,020 Descending Los Angeles Center
06:24PM 35.9067 -114.5292 325° Northwest 285 328 10,200 -1,140 Descending Los Angeles Center
06:24PM 35.9489 -114.5800 316° Northwest 281 323 9,400 -1,080 Descending Los Angeles Center
06:25PM 35.9611 -114.5953 315° West 277 319 9,100 -1,080 Descending Los Angeles Center
06:25PM 36.0022 -114.6447 316° Northwest 256 295 8,200 -1,080 Descending Los Angeles Center
06:26PM 36.0117 -114.6542 321° Northwest 258 297 8,000 -240 Descending Los Angeles Center
06:26PM 36.0461 -114.6964 315° West 238 274 8,000  Level Los Angeles Center
06:27PM 36.0572 -114.7094 316° Northwest 238 274 8,000 -540 Level Los Angeles Center
06:27PM 36.0736 -114.7617 291° West 234 269 7,500 -720 Descending Los Angeles Center
06:28PM 36.0728 -114.7803 267° West 228 262 7,300 -900 Descending Los Angeles Center
06:28PM 36.0708 -114.8478 268° West 233 268 6,600 -1,080 Descending Los Angeles Center
06:29PM 36.0717 -114.8786 272° West 236 272 6,200 -1,380 Descending Los Angeles Center
06:30PM 36.0728 -114.9350 271° West 235 270 5,100 -1,380 Descending Los Angeles Center
06:30PM 36.0731 -114.9539 271° West 212 244 4,800 -1,140 Descending Los Angeles Center
06:31PM 36.0736 -114.9986 271° West 187 215 4,000 -1,200 Descending Los Angeles Center
06:31PM 36.0736 -115.0203 270° West 180 207 3,600 -840 Descending Los Angeles Center
06:32PM 36.0731 -115.0547 269° West 161 185 3,200 -720 Descending Los Angeles Center
06:32PM 36.0736 -115.0728 272° West 157 181 2,900 -840 Descending Los Angeles Center
06:33PM 36.0739 -115.1078 271° West 147 169 2,400 -900 Descending Los Angeles Center
06:33PM 36.0731 -115.1264 267° West 147 169 2,000 -1,080 Descending Los Angeles Center
06:35PM 36.0667 -115.1500 270° West  Level FlightAware Approximate